Terminal Aerodrome Forecast
Issued by NWS Paducah, KY

Home | Current Version | Previous Version | Text Only | Print | Product List | Glossary On
Versions: 1 2 3 4 5 6 7 8 9 10 11 12 13 14 15 16 17 18
000
FTUS43 KPAH 210600 AAA
TAFEVV
TAF AMD
KEVV 210624Z 2106/2206 19005KT P6SM BKN100 BKN250
     FM210645 VRB05G15KT P6SM SHRA VCTS BKN035CB
     FM210800 20005KT P6SM SCT035 BKN100
      TEMPO 2110/2112 5SM BR
     FM211400 22007KT P6SM SCT035 SCT100
     FM220100 21005KT P6SM SKC=

USA.gov is the U.S. government's official web portal to all federal, state and local government web resources and services.